sensor_id;sensor_type;location;lat;lon;timestamp;P1;durP1;ratioP1;P2;durP2;ratioP2
44824;SDS011;30542;47.928;2.138;2024-01-27T00:01:10;2.30;;;1.83;;
44824;SDS011;30542;47.928;2.138;2024-01-27T00:06:10;2.60;;;1.80;;
44824;SDS011;30542;47.928;2.138;2024-01-27T00:11:11;3.08;;;2.15;;
44824;SDS011;30542;47.928;2.138;2024-01-27T00:16:12;3.60;;;1.90;;
44824;SDS011;30542;47.928;2.138;2024-01-27T00:21:12;2.90;;;2.17;;
44824;SDS011;30542;47.928;2.138;2024-01-27T00:26:12;3.07;;;1.97;;
44824;SDS011;30542;47.928;2.138;2024-01-27T00:31:13;1.85;;;1.42;;
44824;SDS011;30542;47.928;2.138;2024-01-27T00:36:13;3.07;;;1.87;;
44824;SDS011;30542;47.928;2.138;2024-01-27T00:41:17;2.60;;;1.60;;
44824;SDS011;30542;47.928;2.138;2024-01-27T00:46:18;3.38;;;2.00;;
44824;SDS011;30542;47.928;2.138;2024-01-27T00:51:18;3.90;;;2.47;;
44824;SDS011;30542;47.928;2.138;2024-01-27T00:56:19;3.80;;;2.40;;
44824;SDS011;30542;47.928;2.138;2024-01-27T01:01:19;3.13;;;1.97;;
44824;SDS011;30542;47.928;2.138;2024-01-27T01:06:19;2.43;;;1.77;;
44824;SDS011;30542;47.928;2.138;2024-01-27T01:11:20;2.80;;;2.00;;
44824;SDS011;30542;47.928;2.138;2024-01-27T01:16:20;2.58;;;1.98;;
44824;SDS011;30542;47.928;2.138;2024-01-27T01:21:20;2.80;;;2.53;;
44824;SDS011;30542;47.928;2.138;2024-01-27T01:26:21;3.17;;;2.05;;
44824;SDS011;30542;47.928;2.138;2024-01-27T01:31:22;2.57;;;2.00;;
44824;SDS011;30542;47.928;2.138;2024-01-27T01:36:22;3.80;;;2.17;;
44824;SDS011;30542;47.928;2.138;2024-01-27T01:41:22;4.23;;;2.33;;
44824;SDS011;30542;47.928;2.138;2024-01-27T01:46:23;3.60;;;2.88;;
44824;SDS011;30542;47.928;2.138;2024-01-27T01:51:24;3.33;;;2.22;;
44824;SDS011;30542;47.928;2.138;2024-01-27T01:56:25;3.00;;;2.20;;
44824;SDS011;30542;47.928;2.138;2024-01-27T02:01:26;2.90;;;2.22;;
44824;SDS011;30542;47.928;2.138;2024-01-27T02:06:27;1.98;;;1.67;;
44824;SDS011;30542;47.928;2.138;2024-01-27T02:11:27;2.37;;;2.10;;
44824;SDS011;30542;47.928;2.138;2024-01-27T02:16:28;2.65;;;2.45;;
44824;SDS011;30542;47.928;2.138;2024-01-27T02:21:28;2.33;;;2.10;;
44824;SDS011;30542;47.928;2.138;2024-01-27T02:26:28;3.17;;;2.30;;
44824;SDS011;30542;47.928;2.138;2024-01-27T02:31:29;3.40;;;2.40;;
44824;SDS011;30542;47.928;2.138;2024-01-27T02:36:30;2.92;;;2.13;;
44824;SDS011;30542;47.928;2.138;2024-01-27T02:41:30;2.97;;;2.00;;
44824;SDS011;30542;47.928;2.138;2024-01-27T02:46:35;3.85;;;2.20;;
44824;SDS011;30542;47.928;2.138;2024-01-27T02:51:35;2.07;;;1.97;;
44824;SDS011;30542;47.928;2.138;2024-01-27T02:56:36;2.47;;;2.03;;
44824;SDS011;30542;47.928;2.138;2024-01-27T03:01:36;2.47;;;2.17;;
44824;SDS011;30542;47.928;2.138;2024-01-27T03:06:36;3.43;;;2.50;;
44824;SDS011;30542;47.928;2.138;2024-01-27T03:11:37;2.73;;;2.03;;
44824;SDS011;30542;47.928;2.138;2024-01-27T03:16:37;2.88;;;2.03;;
44824;SDS011;30542;47.928;2.138;2024-01-27T03:21:38;2.47;;;1.77;;
44824;SDS011;30542;47.928;2.138;2024-01-27T03:26:38;3.37;;;2.57;;
44824;SDS011;30542;47.928;2.138;2024-01-27T03:31:38;2.67;;;2.07;;
44824;SDS011;30542;47.928;2.138;2024-01-27T03:36:39;4.15;;;2.53;;
44824;SDS011;30542;47.928;2.138;2024-01-27T03:41:40;2.53;;;2.28;;
44824;SDS011;30542;47.928;2.138;2024-01-27T03:46:40;3.43;;;1.80;;
44824;SDS011;30542;47.928;2.138;2024-01-27T03:51:41;2.83;;;1.70;;
44824;SDS011;30542;47.928;2.138;2024-01-27T03:56:41;2.30;;;1.90;;
44824;SDS011;30542;47.928;2.138;2024-01-27T04:01:42;3.70;;;2.25;;
44824;SDS011;30542;47.928;2.138;2024-01-27T04:06:42;2.77;;;1.93;;
44824;SDS011;30542;47.928;2.138;2024-01-27T04:11:42;2.33;;;1.80;;
44824;SDS011;30542;47.928;2.138;2024-01-27T04:16:43;1.92;;;1.70;;
44824;SDS011;30542;47.928;2.138;2024-01-27T04:21:43;1.93;;;1.40;;
44824;SDS011;30542;47.928;2.138;2024-01-27T04:26:44;2.70;;;2.10;;
44824;SDS011;30542;47.928;2.138;2024-01-27T04:31:44;2.83;;;2.10;;
44824;SDS011;30542;47.928;2.138;2024-01-27T04:36:44;1.80;;;1.70;;
44824;SDS011;30542;47.928;2.138;2024-01-27T04:41:45;2.33;;;1.93;;
44824;SDS011;30542;47.928;2.138;2024-01-27T04:46:45;2.30;;;1.77;;
44824;SDS011;30542;47.928;2.138;2024-01-27T04:51:46;2.00;;;1.60;;
44824;SDS011;30542;47.928;2.138;2024-01-27T04:56:46;2.53;;;1.60;;
44824;SDS011;30542;47.928;2.138;2024-01-27T05:01:46;2.80;;;1.87;;
44824;SDS011;30542;47.928;2.138;2024-01-27T05:06:47;2.20;;;1.33;;
44824;SDS011;30542;47.928;2.138;2024-01-27T05:11:47;1.70;;;1.47;;
44824;SDS011;30542;47.928;2.138;2024-01-27T05:16:51;2.85;;;1.70;;
44824;SDS011;30542;47.928;2.138;2024-01-27T05:21:51;1.53;;;1.43;;
44824;SDS011;30542;47.928;2.138;2024-01-27T05:26:52;1.73;;;1.63;;
44824;SDS011;30542;47.928;2.138;2024-01-27T05:31:52;2.80;;;1.93;;
44824;SDS011;30542;47.928;2.138;2024-01-27T05:36:53;2.10;;;1.55;;
44824;SDS011;30542;47.928;2.138;2024-01-27T05:41:53;1.58;;;1.30;;
44824;SDS011;30542;47.928;2.138;2024-01-27T05:46:54;2.80;;;1.10;;
44824;SDS011;30542;47.928;2.138;2024-01-27T05:51:54;2.27;;;1.97;;
44824;SDS011;30542;47.928;2.138;2024-01-27T05:56:54;1.97;;;1.43;;
44824;SDS011;30542;47.928;2.138;2024-01-27T06:01:55;1.97;;;1.47;;
44824;SDS011;30542;47.928;2.138;2024-01-27T06:06:57;2.00;;;1.25;;
44824;SDS011;30542;47.928;2.138;2024-01-27T06:11:59;3.00;;;1.60;;
44824;SDS011;30542;47.928;2.138;2024-01-27T06:17:01;1.40;;;1.20;;
44824;SDS011;30542;47.928;2.138;2024-01-27T06:22:03;2.58;;;1.40;;
44824;SDS011;30542;47.928;2.138;2024-01-27T06:27:04;1.97;;;1.20;;
44824;SDS011;30542;47.928;2.138;2024-01-27T06:32:04;1.52;;;1.10;;
44824;SDS011;30542;47.928;2.138;2024-01-27T06:37:05;2.05;;;1.10;;
44824;SDS011;30542;47.928;2.138;2024-01-27T06:42:05;1.97;;;1.33;;
44824;SDS011;30542;47.928;2.138;2024-01-27T06:47:06;1.50;;;1.40;;
44824;SDS011;30542;47.928;2.138;2024-01-27T06:52:06;1.77;;;1.27;;
44824;SDS011;30542;47.928;2.138;2024-01-27T06:57:06;1.10;;;1.00;;
44824;SDS011;30542;47.928;2.138;2024-01-27T07:02:26;1.88;;;1.27;;
44824;SDS011;30542;47.928;2.138;2024-01-27T07:07:28;1.23;;;1.08;;
44824;SDS011;30542;47.928;2.138;2024-01-27T07:12:29;2.35;;;1.38;;
44824;SDS011;30542;47.928;2.138;2024-01-27T07:17:29;3.55;;;1.45;;
44824;SDS011;30542;47.928;2.138;2024-01-27T07:22:29;2.87;;;1.50;;
44824;SDS011;30542;47.928;2.138;2024-01-27T07:27:30;2.90;;;1.00;;
44824;SDS011;30542;47.928;2.138;2024-01-27T07:32:30;1.93;;;1.37;;
44824;SDS011;30542;47.928;2.138;2024-01-27T07:37:31;4.33;;;1.43;;
44824;SDS011;30542;47.928;2.138;2024-01-27T07:42:31;3.30;;;1.40;;
44824;SDS011;30542;47.928;2.138;2024-01-27T07:47:31;4.13;;;1.47;;
44824;SDS011;30542;47.928;2.138;2024-01-27T07:52:32;8.90;;;2.50;;
44824;SDS011;30542;47.928;2.138;2024-01-27T07:57:32;17.37;;;4.50;;
44824;SDS011;30542;47.928;2.138;2024-01-27T08:02:33;13.80;;;4.57;;
44824;SDS011;30542;47.928;2.138;2024-01-27T08:07:33;12.10;;;3.83;;
44824;SDS011;30542;47.928;2.138;2024-01-27T08:12:33;10.23;;;3.90;;
44824;SDS011;30542;47.928;2.138;2024-01-27T08:17:34;10.27;;;3.37;;
44824;SDS011;30542;47.928;2.138;2024-01-27T08:22:34;11.23;;;3.95;;
44824;SDS011;30542;47.928;2.138;2024-01-27T08:27:34;11.35;;;2.65;;
44824;SDS011;30542;47.928;2.138;2024-01-27T08:32:35;12.23;;;4.13;;
44824;SDS011;30542;47.928;2.138;2024-01-27T08:37:36;13.40;;;5.82;;
44824;SDS011;30542;47.928;2.138;2024-01-27T08:42:38;25.05;;;4.90;;
44824;SDS011;30542;47.928;2.138;2024-01-27T08:47:39;11.52;;;3.60;;
44824;SDS011;30542;47.928;2.138;2024-01-27T08:52:40;14.77;;;3.97;;
44824;SDS011;30542;47.928;2.138;2024-01-27T08:57:40;9.63;;;4.53;;
44824;SDS011;30542;47.928;2.138;2024-01-27T09:02:41;10.93;;;3.83;;
44824;SDS011;30542;47.928;2.138;2024-01-27T09:07:41;10.70;;;4.37;;
44824;SDS011;30542;47.928;2.138;2024-01-27T09:12:41;14.73;;;4.83;;
44824;SDS011;30542;47.928;2.138;2024-01-27T09:17:42;15.70;;;7.53;;
44824;SDS011;30542;47.928;2.138;2024-01-27T09:22:43;19.17;;;10.60;;
44824;SDS011;30542;47.928;2.138;2024-01-27T09:27:44;20.80;;;13.25;;
44824;SDS011;30542;47.928;2.138;2024-01-27T09:32:45;39.47;;;25.70;;
44824;SDS011;30542;47.928;2.138;2024-01-27T09:37:45;45.60;;;33.53;;
44824;SDS011;30542;47.928;2.138;2024-01-27T09:42:52;44.92;;;30.55;;
44824;SDS011;30542;47.928;2.138;2024-01-27T09:47:53;35.45;;;23.70;;
44824;SDS011;30542;47.928;2.138;2024-01-27T09:52:57;34.28;;;23.90;;
44824;SDS011;30542;47.928;2.138;2024-01-27T09:57:57;45.17;;;31.25;;
44824;SDS011;30542;47.928;2.138;2024-01-27T10:02:58;52.47;;;35.40;;
44824;SDS011;30542;47.928;2.138;2024-01-27T10:07:58;41.97;;;27.93;;
44824;SDS011;30542;47.928;2.138;2024-01-27T10:12:59;37.73;;;22.83;;
44824;SDS011;30542;47.928;2.138;2024-01-27T10:18:04;34.17;;;20.42;;
44824;SDS011;30542;47.928;2.138;2024-01-27T10:23:11;28.27;;;17.48;;
44824;SDS011;30542;47.928;2.138;2024-01-27T10:28:12;27.20;;;15.23;;
44824;SDS011;30542;47.928;2.138;2024-01-27T10:33:12;23.67;;;12.53;;
44824;SDS011;30542;47.928;2.138;2024-01-27T10:38:15;18.55;;;10.55;;
44824;SDS011;30542;47.928;2.138;2024-01-27T10:43:17;16.40;;;9.77;;
44824;SDS011;30542;47.928;2.138;2024-01-27T10:48:18;17.35;;;8.30;;
44824;SDS011;30542;47.928;2.138;2024-01-27T10:53:23;12.57;;;7.78;;
44824;SDS011;30542;47.928;2.138;2024-01-27T10:58:31;13.55;;;7.38;;
44824;SDS011;30542;47.928;2.138;2024-01-27T11:03:36;12.18;;;6.80;;
44824;SDS011;30542;47.928;2.138;2024-01-27T11:08:39;11.75;;;7.15;;
44824;SDS011;30542;47.928;2.138;2024-01-27T11:13:40;9.48;;;5.78;;
44824;SDS011;30542;47.928;2.138;2024-01-27T11:18:42;8.80;;;5.35;;
44824;SDS011;30542;47.928;2.138;2024-01-27T11:23:43;10.38;;;5.57;;
44824;SDS011;30542;47.928;2.138;2024-01-27T11:28:45;8.55;;;4.80;;
44824;SDS011;30542;47.928;2.138;2024-01-27T11:33:47;10.77;;;5.88;;
44824;SDS011;30542;47.928;2.138;2024-01-27T11:38:52;16.83;;;7.63;;
44824;SDS011;30542;47.928;2.138;2024-01-27T11:43:53;43.35;;;18.63;;
44824;SDS011;30542;47.928;2.138;2024-01-27T11:48:57;39.22;;;18.05;;
44824;SDS011;30542;47.928;2.138;2024-01-27T11:53:58;37.50;;;17.60;;
44824;SDS011;30542;47.928;2.138;2024-01-27T11:58:58;31.53;;;15.67;;
44824;SDS011;30542;47.928;2.138;2024-01-27T12:04:00;40.58;;;15.68;;
44824;SDS011;30542;47.928;2.138;2024-01-27T12:09:00;33.80;;;15.15;;
44824;SDS011;30542;47.928;2.138;2024-01-27T12:14:01;30.83;;;15.05;;
44824;SDS011;30542;47.928;2.138;2024-01-27T12:19:01;31.93;;;13.50;;
44824;SDS011;30542;47.928;2.138;2024-01-27T12:24:02;28.77;;;12.35;;
44824;SDS011;30542;47.928;2.138;2024-01-27T12:29:03;23.83;;;12.00;;
44824;SDS011;30542;47.928;2.138;2024-01-27T12:34:03;24.15;;;11.73;;
44824;SDS011;30542;47.928;2.138;2024-01-27T12:39:03;23.30;;;11.50;;
44824;SDS011;30542;47.928;2.138;2024-01-27T12:44:05;22.23;;;10.85;;
44824;SDS011;30542;47.928;2.138;2024-01-27T12:49:06;20.23;;;10.18;;
44824;SDS011;30542;47.928;2.138;2024-01-27T12:54:08;21.00;;;9.70;;
44824;SDS011;30542;47.928;2.138;2024-01-27T12:59:08;20.35;;;9.38;;
44824;SDS011;30542;47.928;2.138;2024-01-27T13:04:09;17.05;;;8.00;;
44824;SDS011;30542;47.928;2.138;2024-01-27T13:09:10;16.00;;;7.87;;
44824;SDS011;30542;47.928;2.138;2024-01-27T13:14:14;11.93;;;6.15;;
44824;SDS011;30542;47.928;2.138;2024-01-27T13:19:16;14.82;;;7.95;;
44824;SDS011;30542;47.928;2.138;2024-01-27T13:24:16;15.13;;;6.93;;
44824;SDS011;30542;47.928;2.138;2024-01-27T13:29:17;12.60;;;6.82;;
44824;SDS011;30542;47.928;2.138;2024-01-27T13:34:17;14.40;;;6.32;;
44824;SDS011;30542;47.928;2.138;2024-01-27T13:39:18;12.75;;;6.88;;
44824;SDS011;30542;47.928;2.138;2024-01-27T13:44:18;13.27;;;6.37;;
44824;SDS011;30542;47.928;2.138;2024-01-27T13:49:18;10.95;;;5.32;;
44824;SDS011;30542;47.928;2.138;2024-01-27T13:54:20;11.05;;;5.85;;
44824;SDS011;30542;47.928;2.138;2024-01-27T13:59:20;11.97;;;6.40;;
44824;SDS011;30542;47.928;2.138;2024-01-27T14:04:21;9.85;;;5.90;;
44824;SDS011;30542;47.928;2.138;2024-01-27T14:09:25;9.03;;;5.17;;
44824;SDS011;30542;47.928;2.138;2024-01-27T14:14:27;9.52;;;4.88;;
44824;SDS011;30542;47.928;2.138;2024-01-27T14:19:28;8.23;;;4.68;;
44824;SDS011;30542;47.928;2.138;2024-01-27T14:24:28;9.00;;;5.20;;
44824;SDS011;30542;47.928;2.138;2024-01-27T14:29:29;11.37;;;4.60;;
44824;SDS011;30542;47.928;2.138;2024-01-27T14:34:29;10.60;;;5.37;;
44824;SDS011;30542;47.928;2.138;2024-01-27T14:39:29;9.80;;;4.43;;
44824;SDS011;30542;47.928;2.138;2024-01-27T14:44:31;9.68;;;4.13;;
44824;SDS011;30542;47.928;2.138;2024-01-27T14:49:31;8.30;;;4.03;;
44824;SDS011;30542;47.928;2.138;2024-01-27T14:54:33;9.23;;;4.10;;
44824;SDS011;30542;47.928;2.138;2024-01-27T14:59:35;6.75;;;3.88;;
44824;SDS011;30542;47.928;2.138;2024-01-27T15:04:38;7.57;;;3.50;;
44824;SDS011;30542;47.928;2.138;2024-01-27T15:09:39;8.50;;;4.00;;
44824;SDS011;30542;47.928;2.138;2024-01-27T15:14:39;5.80;;;3.47;;
44824;SDS011;30542;47.928;2.138;2024-01-27T15:19:39;7.73;;;3.90;;
44824;SDS011;30542;47.928;2.138;2024-01-27T15:24:40;5.57;;;3.30;;
44824;SDS011;30542;47.928;2.138;2024-01-27T15:29:40;7.75;;;3.65;;
44824;SDS011;30542;47.928;2.138;2024-01-27T15:34:41;7.10;;;3.70;;
44824;SDS011;30542;47.928;2.138;2024-01-27T15:39:41;8.50;;;3.73;;
44824;SDS011;30542;47.928;2.138;2024-01-27T15:44:43;5.88;;;3.45;;
44824;SDS011;30542;47.928;2.138;2024-01-27T15:49:44;6.57;;;3.80;;
44824;SDS011;30542;47.928;2.138;2024-01-27T15:54:44;5.40;;;3.47;;
44824;SDS011;30542;47.928;2.138;2024-01-27T15:59:47;6.55;;;3.75;;
44824;SDS011;30542;47.928;2.138;2024-01-27T16:04:48;4.72;;;3.13;;
44824;SDS011;30542;47.928;2.138;2024-01-27T16:09:48;6.60;;;3.22;;
44824;SDS011;30542;47.928;2.138;2024-01-27T16:14:50;7.28;;;3.80;;
44824;SDS011;30542;47.928;2.138;2024-01-27T16:19:50;4.83;;;3.70;;
44824;SDS011;30542;47.928;2.138;2024-01-27T16:24:53;6.00;;;2.70;;
44824;SDS011;30542;47.928;2.138;2024-01-27T16:29:53;6.10;;;3.40;;
44824;SDS011;30542;47.928;2.138;2024-01-27T16:34:54;6.57;;;3.38;;
44824;SDS011;30542;47.928;2.138;2024-01-27T16:39:54;5.40;;;3.37;;
44824;SDS011;30542;47.928;2.138;2024-01-27T16:44:55;5.50;;;2.93;;
44824;SDS011;30542;47.928;2.138;2024-01-27T16:49:55;7.20;;;2.80;;
44824;SDS011;30542;47.928;2.138;2024-01-27T16:54:56;5.10;;;2.30;;
44824;SDS011;30542;47.928;2.138;2024-01-27T16:59:56;4.63;;;2.47;;
44824;SDS011;30542;47.928;2.138;2024-01-27T17:04:57;4.13;;;2.43;;
44824;SDS011;30542;47.928;2.138;2024-01-27T17:10:02;5.28;;;2.20;;
44824;SDS011;30542;47.928;2.138;2024-01-27T17:15:05;3.03;;;1.90;;
44824;SDS011;30542;47.928;2.138;2024-01-27T17:20:06;3.47;;;2.00;;
44824;SDS011;30542;47.928;2.138;2024-01-27T17:25:08;5.15;;;2.25;;
44824;SDS011;30542;47.928;2.138;2024-01-27T17:30:09;5.85;;;2.33;;
44824;SDS011;30542;47.928;2.138;2024-01-27T17:35:10;2.65;;;1.90;;
44824;SDS011;30542;47.928;2.138;2024-01-27T17:40:10;3.97;;;2.42;;
44824;SDS011;30542;47.928;2.138;2024-01-27T17:45:11;4.00;;;2.03;;
44824;SDS011;30542;47.928;2.138;2024-01-27T17:50:11;3.33;;;2.00;;
44824;SDS011;30542;47.928;2.138;2024-01-27T17:55:13;3.47;;;1.75;;
44824;SDS011;30542;47.928;2.138;2024-01-27T18:00:13;2.42;;;1.48;;
44824;SDS011;30542;47.928;2.138;2024-01-27T18:05:16;3.00;;;1.73;;
44824;SDS011;30542;47.928;2.138;2024-01-27T18:10:17;1.93;;;1.40;;
44824;SDS011;30542;47.928;2.138;2024-01-27T18:15:17;3.15;;;1.88;;
44824;SDS011;30542;47.928;2.138;2024-01-27T18:20:18;1.83;;;1.50;;
44824;SDS011;30542;47.928;2.138;2024-01-27T18:25:18;2.23;;;1.77;;
44824;SDS011;30542;47.928;2.138;2024-01-27T18:30:18;3.47;;;1.90;;
44824;SDS011;30542;47.928;2.138;2024-01-27T18:35:19;3.08;;;2.03;;
44824;SDS011;30542;47.928;2.138;2024-01-27T18:40:19;3.58;;;2.00;;
44824;SDS011;30542;47.928;2.138;2024-01-27T18:45:20;3.00;;;1.70;;
44824;SDS011;30542;47.928;2.138;2024-01-27T18:50:20;5.27;;;1.80;;
44824;SDS011;30542;47.928;2.138;2024-01-27T18:55:20;2.15;;;1.45;;
44824;SDS011;30542;47.928;2.138;2024-01-27T19:00:27;3.22;;;1.70;;
44824;SDS011;30542;47.928;2.138;2024-01-27T19:05:28;7.55;;;2.22;;
44824;SDS011;30542;47.928;2.138;2024-01-27T19:10:30;4.75;;;1.90;;
44824;SDS011;30542;47.928;2.138;2024-01-27T19:15:31;1.98;;;1.60;;
44824;SDS011;30542;47.928;2.138;2024-01-27T19:20:33;1.90;;;1.38;;
44824;SDS011;30542;47.928;2.138;2024-01-27T19:25:34;1.77;;;1.63;;
44824;SDS011;30542;47.928;2.138;2024-01-27T19:30:35;2.33;;;1.75;;
44824;SDS011;30542;47.928;2.138;2024-01-27T19:35:35;3.63;;;1.42;;
44824;SDS011;30542;47.928;2.138;2024-01-27T19:40:35;2.55;;;1.50;;
44824;SDS011;30542;47.928;2.138;2024-01-27T19:45:36;2.57;;;1.37;;
44824;SDS011;30542;47.928;2.138;2024-01-27T19:50:37;2.85;;;1.73;;
44824;SDS011;30542;47.928;2.138;2024-01-27T19:55:37;2.90;;;2.20;;
44824;SDS011;30542;47.928;2.138;2024-01-27T20:00:37;1.93;;;1.30;;
44824;SDS011;30542;47.928;2.138;2024-01-27T20:05:38;3.10;;;1.63;;
44824;SDS011;30542;47.928;2.138;2024-01-27T20:10:38;2.17;;;1.57;;
44824;SDS011;30542;47.928;2.138;2024-01-27T20:15:39;4.13;;;1.80;;
44824;SDS011;30542;47.928;2.138;2024-01-27T20:20:39;2.20;;;1.23;;
44824;SDS011;30542;47.928;2.138;2024-01-27T20:25:39;2.13;;;1.20;;
44824;SDS011;30542;47.928;2.138;2024-01-27T20:30:40;2.13;;;1.33;;
44824;SDS011;30542;47.928;2.138;2024-01-27T20:35:40;1.73;;;1.23;;
44824;SDS011;30542;47.928;2.138;2024-01-27T20:40:40;2.37;;;1.30;;
44824;SDS011;30542;47.928;2.138;2024-01-27T20:45:41;3.07;;;1.47;;
44824;SDS011;30542;47.928;2.138;2024-01-27T20:50:41;2.03;;;1.00;;
44824;SDS011;30542;47.928;2.138;2024-01-27T20:55:42;2.35;;;1.13;;
44824;SDS011;30542;47.928;2.138;2024-01-27T21:00:42;2.20;;;1.23;;
44824;SDS011;30542;47.928;2.138;2024-01-27T21:05:43;2.13;;;1.23;;
44824;SDS011;30542;47.928;2.138;2024-01-27T21:10:44;2.22;;;1.02;;
44824;SDS011;30542;47.928;2.138;2024-01-27T21:15:45;2.20;;;1.00;;
44824;SDS011;30542;47.928;2.138;2024-01-27T21:20:45;1.83;;;1.20;;
44824;SDS011;30542;47.928;2.138;2024-01-27T21:25:45;2.30;;;1.20;;
44824;SDS011;30542;47.928;2.138;2024-01-27T21:30:46;2.03;;;1.00;;
44824;SDS011;30542;47.928;2.138;2024-01-27T21:35:46;2.63;;;1.20;;
44824;SDS011;30542;47.928;2.138;2024-01-27T21:40:47;2.17;;;1.33;;
44824;SDS011;30542;47.928;2.138;2024-01-27T21:45:47;2.63;;;1.77;;
44824;SDS011;30542;47.928;2.138;2024-01-27T21:50:47;1.97;;;1.57;;
44824;SDS011;30542;47.928;2.138;2024-01-27T21:55:48;1.90;;;1.23;;
44824;SDS011;30542;47.928;2.138;2024-01-27T22:00:48;2.77;;;1.43;;
44824;SDS011;30542;47.928;2.138;2024-01-27T22:05:48;3.97;;;1.50;;
44824;SDS011;30542;47.928;2.138;2024-01-27T22:10:49;3.67;;;1.53;;
44824;SDS011;30542;47.928;2.138;2024-01-27T22:15:49;2.70;;;1.40;;
44824;SDS011;30542;47.928;2.138;2024-01-27T22:20:50;2.25;;;1.67;;
44824;SDS011;30542;47.928;2.138;2024-01-27T22:25:52;2.50;;;1.65;;
44824;SDS011;30542;47.928;2.138;2024-01-27T22:30:53;2.37;;;1.50;;
44824;SDS011;30542;47.928;2.138;2024-01-27T22:35:53;2.43;;;1.63;;
44824;SDS011;30542;47.928;2.138;2024-01-27T22:40:53;2.90;;;1.33;;
44824;SDS011;30542;47.928;2.138;2024-01-27T22:45:54;4.68;;;2.22;;
44824;SDS011;30542;47.928;2.138;2024-01-27T22:50:54;2.10;;;1.40;;
44824;SDS011;30542;47.928;2.138;2024-01-27T22:55:55;2.30;;;1.77;;
44824;SDS011;30542;47.928;2.138;2024-01-27T23:00:55;2.88;;;1.73;;
44824;SDS011;30542;47.928;2.138;2024-01-27T23:05:56;2.20;;;1.60;;
44824;SDS011;30542;47.928;2.138;2024-01-27T23:10:57;2.50;;;1.42;;
44824;SDS011;30542;47.928;2.138;2024-01-27T23:15:58;3.17;;;1.58;;
44824;SDS011;30542;47.928;2.138;2024-01-27T23:20:58;2.33;;;1.43;;
44824;SDS011;30542;47.928;2.138;2024-01-27T23:25:59;3.90;;;1.73;;
44824;SDS011;30542;47.928;2.138;2024-01-27T23:30:59;3.17;;;1.80;;
44824;SDS011;30542;47.928;2.138;2024-01-27T23:35:59;2.67;;;1.85;;
44824;SDS011;30542;47.928;2.138;2024-01-27T23:41:01;3.00;;;1.75;;
44824;SDS011;30542;47.928;2.138;2024-01-27T23:46:02;3.67;;;1.77;;
44824;SDS011;30542;47.928;2.138;2024-01-27T23:51:02;2.72;;;2.15;;
44824;SDS011;30542;47.928;2.138;2024-01-27T23:56:03;1.83;;;1.38;;
